Time;durP1;ratioP1;P1;durP2;ratioP2;P2;SDS_P1;SDS_P2;PMS_P1;PMS_P2;Temp;Humidity;BMP_temperature;BMP_pressure;BME280_temperature;BME280_humidity;BME280_pressure;Samples;Min_cycle;Max_cycle;Signal;HPM_P1;HPM_P2
2024/04/05 00:02:05;;;;;;;;;18.33;16.00;;;;;11.06;92.91;99827.19;113359;224;40282;-57
2024/04/05 00:04:45;;;;;;;;;20.00;16.00;;;;;11.04;93.09;99824.86;113366;228;41852;-54
2024/04/05 00:07:35;;;;;;;;;18.00;15.00;;;;;11.02;93.09;99823.74;113326;228;42244;-54
2024/04/05 00:10:10;;;;;;;;;17.00;14.00;;;;;11.05;93.13;99823.48;113330;228;41857;-54
2024/04/05 00:12:50;;;;;;;;;13.00;11.00;;;;;11.08;93.24;99823.33;113119;228;170219;-54
2024/04/05 00:15:29;;;;;;;;;18.00;15.00;;;;;11.05;93.65;99831.77;113321;224;40807;-56
2024/04/05 00:18:04;;;;;;;;;15.00;13.00;;;;;11.09;93.49;99842.21;113085;228;169817;-56
2024/04/05 00:20:46;;;;;;;;;17.00;15.00;;;;;11.10;93.71;99848.16;113284;225;41317;-53
2024/04/05 00:23:31;;;;;;;;;16.33;14.00;;;;;11.20;93.80;99849.34;113115;228;169961;-54
2024/04/05 00:26:09;;;;;;;;;14.00;13.00;;;;;11.26;93.81;99851.63;113241;224;40191;-54
2024/04/05 00:28:45;;;;;;;;;19.00;15.00;;;;;11.32;93.70;99852.02;113248;228;40177;-54
2024/04/05 00:31:23;;;;;;;;;20.00;16.00;;;;;11.33;93.71;99851.84;113241;225;40869;-54
2024/04/05 00:33:58;;;;;;;;;14.00;13.00;;;;;11.35;94.07;99854.95;113267;224;40878;-57
2024/04/05 00:36:43;;;;;;;;;14.00;12.00;;;;;11.41;94.12;99852.59;113070;224;169910;-57
2024/04/05 00:39:17;;;;;;;;;16.50;13.50;;;;;11.41;94.12;99851.38;113302;223;40193;-55
2024/04/05 00:41:53;;;;;;;;;16.00;13.00;;;;;11.43;94.25;99848.72;113121;223;169729;-55
2024/04/05 00:44:31;;;;;;;;;11.00;10.00;;;;;11.44;94.20;99849.77;113325;224;41174;-55
2024/04/05 00:47:13;;;;;;;;;12.50;11.00;;;;;11.45;94.36;99856.76;113163;225;169877;-55
2024/04/05 00:49:51;;;;;;;;;16.00;12.00;;;;;11.42;94.20;99857.04;113331;228;40165;-58
2024/04/05 00:52:27;;;;;;;;;16.00;13.25;;;;;11.44;94.29;99852.76;113358;228;40049;-58
2024/04/05 00:55:03;;;;;;;;;13.50;11.00;;;;;11.45;94.50;99847.42;113135;224;169830;-55
2024/04/05 00:57:39;;;;;;;;;12.00;11.00;;;;;11.44;94.43;99843.10;113356;225;41045;-55
2024/04/05 01:00:17;;;;;;;;;13.50;11.00;;;;;11.46;94.41;99841.85;113125;224;170857;-57
2024/04/05 01:02:55;;;;;;;;;15.00;12.00;;;;;11.44;94.53;99843.35;113323;225;39833;-57
2024/04/05 01:05:29;;;;;;;;;17.00;13.00;;;;;11.40;94.46;99842.95;113126;225;169968;-54
2024/04/05 01:08:04;;;;;;;;;16.00;13.00;;;;;11.39;94.55;99848.26;113265;225;40503;-54
2024/04/05 01:10:39;;;;;;;;;12.00;10.00;;;;;11.36;94.53;99853.38;113308;228;39879;-54
2024/04/05 01:13:15;;;;;;;;;12.67;10.33;;;;;11.37;94.65;99859.33;113087;224;169479;-54
2024/04/05 01:15:54;;;;;;;;;16.00;13.00;;;;;11.32;94.65;99859.65;113314;225;42207;-55
2024/04/05 01:18:32;;;;;;;;;14.50;13.00;;;;;11.34;94.89;99864.27;113074;225;169783;-56
2024/04/05 01:21:07;;;;;;;;;13.67;11.67;;;;;11.34;94.70;99863.78;113274;228;40137;-55
2024/04/05 01:23:44;;;;;;;;;14.00;12.00;;;;;11.31;94.99;99865.08;113127;228;169866;-55
2024/04/05 01:26:22;;;;;;;;;14.00;12.00;;;;;11.32;95.07;99871.64;113306;224;40362;-54
2024/04/05 01:29:05;;;;;;;;;12.00;10.67;;;;;11.36;95.20;99869.30;113195;225;170326;-57
2024/04/05 01:31:41;;;;;;;;;14.00;11.00;;;;;11.38;95.45;99872.98;113350;228;40521;-57
2024/04/05 01:34:17;;;;;;;;;15.00;11.00;;;;;11.35;95.60;99872.97;113359;228;41395;-54
2024/04/05 01:36:54;;;;;;;;;16.00;13.00;;;;;11.34;95.37;99876.42;113096;224;170167;-54
2024/04/05 01:39:36;;;;;;;;;14.00;11.00;;;;;11.35;95.82;99873.69;113377;223;42067;-58
2024/04/05 01:42:11;;;;;;;;;13.00;10.00;;;;;11.30;95.89;99872.17;113168;227;170002;-59
2024/04/05 01:44:55;;;;;;;;;15.00;12.00;;;;;11.37;95.86;99874.89;113348;224;40370;-54
2024/04/05 01:47:34;;;;;;;;;16.00;13.00;;;;;11.37;95.61;99875.05;113129;225;170193;-54
2024/04/05 01:50:08;;;;;;;;;14.00;11.00;;;;;11.40;95.70;99878.80;113294;225;39968;-57
2024/04/05 01:52:53;;;;;;;;;15.00;13.00;;;;;11.37;95.83;99879.02;113314;225;39793;-56
2024/04/05 01:55:30;;;;;;;;;18.00;15.00;;;;;11.36;95.64;99886.91;113299;225;41732;-58
2024/04/05 01:58:14;;;;;;;;;13.00;10.00;;;;;11.32;95.74;99889.40;113320;225;40298;-58
2024/04/05 02:00:50;;;;;;;;;13.00;9.00;;;;;11.32;95.73;99892.65;113083;227;170416;-57
2024/04/05 02:03:25;;;;;;;;;13.00;10.00;;;;;11.32;95.72;99898.27;113290;225;41141;-55
2024/04/05 02:06:15;;;;;;;;;15.00;11.00;;;;;11.31;95.75;99896.77;113110;225;170819;-55
2024/04/05 02:08:59;;;;;;;;;12.00;9.50;;;;;11.29;95.80;99907.99;113298;224;40671;-54
2024/04/05 02:11:37;;;;;;;;;10.00;8.00;;;;;11.26;95.93;99907.49;113126;227;169822;-54
2024/04/05 02:14:17;;;;;;;;;10.00;9.00;;;;;11.27;95.94;99909.77;113313;227;40355;-56
2024/04/05 02:16:52;;;;;;;;;11.00;9.00;;;;;11.24;95.80;99914.73;113328;228;40222;-56
2024/04/05 02:19:32;;;;;;;;;8.00;7.00;;;;;11.26;95.93;99916.15;113385;225;40652;-53
2024/04/05 02:22:13;;;;;;;;;7.00;5.00;;;;;11.30;95.77;99914.32;113338;225;40091;-54
2024/04/05 02:24:50;;;;;;;;;7.00;6.00;;;;;11.25;95.78;99915.20;113131;224;169379;-56
2024/04/05 02:27:32;;;;;;;;;6.00;6.00;;;;;11.26;95.85;99917.48;113312;225;41860;-56
2024/04/05 02:30:09;;;;;;;;;5.00;4.00;;;;;11.22;95.91;99930.23;113144;224;169413;-56
2024/04/05 02:32:49;;;;;;;;;6.00;4.50;;;;;11.23;95.85;99931.31;113312;225;39869;-56
2024/04/05 02:35:31;;;;;;;;;7.67;6.00;;;;;11.21;95.94;99933.44;113127;224;169622;-57
2024/04/05 02:38:08;;;;;;;;;3.50;3.00;;;;;11.21;95.78;99933.27;113296;228;39740;-57
2024/04/05 02:40:55;;;;;;;;;4.00;4.00;;;;;11.20;95.73;99932.44;113271;228;40627;-56
2024/04/05 02:43:34;;;;;;;;;4.00;4.00;;;;;11.17;95.67;99934.27;113255;228;39785;-56
2024/04/05 02:46:10;;;;;;;;;4.00;4.00;;;;;11.15;95.73;99941.73;113287;228;41465;-57
2024/04/05 02:48:44;;;;;;;;;6.00;5.00;;;;;11.11;95.87;99938.53;113127;224;170090;-54
2024/04/05 02:51:22;;;;;;;;;4.00;3.33;;;;;11.11;95.76;99934.04;113246;224;40043;-53
2024/04/05 02:53:56;;;;;;;;;6.00;5.00;;;;;11.06;95.80;99934.86;113103;228;169501;-55
2024/04/05 02:56:33;;;;;;;;;5.00;4.00;;;;;11.09;95.73;99929.45;113290;228;40725;-55
2024/04/05 02:59:14;;;;;;;;;4.00;4.00;;;;;11.03;95.73;99929.32;113123;225;169586;-54
2024/04/05 03:01:52;;;;;;;;;5.00;4.00;;;;;11.04;95.88;99929.27;113304;224;40754;-54
2024/04/05 03:04:37;;;;;;;;;6.00;5.00;;;;;11.06;95.75;99932.31;113322;225;41222;-55
2024/04/05 03:07:25;;;;;;;;;5.00;4.50;;;;;11.05;95.80;99937.36;113145;228;169433;-54
2024/04/05 03:10:04;;;;;;;;;5.00;4.00;;;;;11.00;95.99;99941.66;113379;225;41411;-54
2024/04/05 03:12:39;;;;;;;;;6.00;5.00;;;;;11.01;95.94;99937.64;113185;227;169413;-55
2024/04/05 03:15:16;;;;;;;;;5.00;5.00;;;;;10.99;95.77;99940.00;113353;228;40115;-55
2024/04/05 03:17:52;;;;;;;;;5.00;4.00;;;;;10.92;95.89;99943.47;113197;228;169308;-54
2024/04/05 03:20:38;;;;;;;;;5.00;4.00;;;;;10.87;95.93;99946.89;113294;228;40995;-54
2024/04/05 03:23:19;;;;;;;;;5.00;4.50;;;;;10.85;96.06;99953.91;113079;224;169700;-54
2024/04/05 03:26:12;;;;;;;;;5.00;4.00;;;;;10.86;95.88;99954.91;113245;224;40639;-57
2024/04/05 03:28:49;;;;;;;;;4.00;4.00;;;;;10.84;95.91;99960.77;113257;228;41541;-55
2024/04/05 03:31:24;;;;;;;;;5.00;4.00;;;;;10.82;95.88;99965.30;113093;225;168944;-56
2024/04/05 03:34:01;;;;;;;;;5.50;4.50;;;;;10.79;95.83;99972.39;113291;224;41863;-55
2024/04/05 03:36:41;;;;;;;;;4.00;4.00;;;;;10.77;95.95;99977.23;113078;228;169444;-55
2024/04/05 03:39:16;;;;;;;;;5.00;4.00;;;;;10.77;95.97;99978.95;113291;224;39831;-55
2024/04/05 03:41:55;;;;;;;;;5.00;5.00;;;;;10.74;95.87;99984.63;113074;225;169920;-55
2024/04/05 03:44:37;;;;;;;;;4.00;3.00;;;;;10.71;95.77;99989.35;113298;228;40441;-54
2024/04/05 03:47:14;;;;;;;;;5.00;4.00;;;;;10.70;95.82;99990.84;113086;224;169079;-54
2024/04/05 03:49:50;;;;;;;;;4.00;3.00;;;;;10.66;95.90;99994.52;113309;228;39666;-57
2024/04/05 03:52:29;;;;;;;;;4.00;4.00;;;;;10.67;95.92;100001.04;113302;228;40578;-58
2024/04/05 03:55:07;;;;;;;;;4.00;4.00;;;;;10.64;95.69;100007.88;113066;224;170150;-57
2024/04/05 03:57:50;;;;;;;;;7.00;5.00;;;;;10.64;95.73;100006.39;113314;224;38825;-57
2024/04/05 04:00:27;;;;;;;;;5.00;4.00;;;;;10.62;95.72;100004.00;113163;225;169733;-57
2024/04/05 04:03:07;;;;;;;;;5.00;4.00;;;;;10.57;95.81;100005.88;113387;224;40459;-57
2024/04/05 04:05:44;;;;;;;;;3.50;3.00;;;;;10.58;95.94;100007.80;113157;225;169996;-57
2024/04/05 04:08:22;;;;;;;;;6.00;5.00;;;;;10.58;95.82;100015.16;113351;224;41855;-57
2024/04/05 04:11:02;;;;;;;;;5.00;4.00;;;;;10.51;95.84;100017.04;113324;224;40492;-58
2024/04/05 04:13:46;;;;;;;;;4.00;4.00;;;;;10.51;95.81;100021.35;113331;225;40596;-56
2024/04/05 04:16:22;;;;;;;;;6.00;5.00;;;;;10.43;95.65;100027.07;113261;225;40951;-56
2024/04/05 04:18:58;;;;;;;;;5.00;4.00;;;;;10.38;95.72;100032.52;113083;227;170081;-56
2024/04/05 04:21:31;;;;;;;;;7.00;6.00;;;;;10.28;95.64;100031.27;113269;225;40413;-56
2024/04/05 04:24:06;;;;;;;;;7.00;6.00;;;;;10.26;95.98;100031.02;113092;225;170128;-58
2024/04/05 04:26:42;;;;;;;;;8.00;6.00;;;;;10.30;95.87;100033.30;113275;227;40426;-58
2024/04/05 04:29:22;;;;;;;;;6.00;6.00;;;;;10.18;95.82;100034.27;113130;227;170174;-57
2024/04/05 04:32:02;;;;;;;;;7.00;5.00;;;;;10.13;95.81;100036.55;113226;224;40808;-57
2024/04/05 04:34:47;;;;;;;;;7.00;5.00;;;;;10.09;95.73;100042.56;113270;227;41797;-55
2024/04/05 04:37:30;;;;;;;;;7.00;6.00;;;;;9.99;95.70;100056.46;113053;223;170123;-55
2024/04/05 04:40:07;;;;;;;;;5.00;4.00;;;;;9.91;95.81;100062.46;113333;223;40325;-55
2024/04/05 04:42:48;;;;;;;;;7.00;5.00;;;;;9.85;95.85;100069.88;113098;223;169938;-55
2024/04/05 04:45:33;;;;;;;;;8.00;7.00;;;;;9.83;95.73;100070.48;113300;223;40735;-58
2024/04/05 04:48:09;;;;;;;;;6.00;5.00;;;;;9.78;95.83;100077.07;113175;224;169794;-58
2024/04/05 04:50:46;;;;;;;;;5.25;4.00;;;;;9.70;95.85;100076.48;113370;227;41718;-56
2024/04/05 04:53:26;;;;;;;;;6.50;5.00;;;;;9.69;96.01;100079.67;113117;223;169958;-56
2024/04/05 04:56:04;;;;;;;;;6.00;5.00;;;;;9.78;96.19;100082.83;113371;227;40068;-57
2024/04/05 04:58:47;;;;;;;;;5.67;4.67;;;;;9.79;96.02;100082.75;113298;227;41137;-55
2024/04/05 05:01:27;;;;;;;;;7.00;6.00;;;;;9.78;96.08;100084.65;113103;224;169676;-55
2024/04/05 05:04:05;;;;;;;;;8.00;6.00;;;;;9.81;96.11;100086.39;113248;227;41078;-55
2024/04/05 05:06:41;;;;;;;;;5.00;5.00;;;;;9.81;96.18;100095.09;113058;223;169757;-55
2024/04/05 05:09:23;;;;;;;;;6.00;5.00;;;;;9.83;96.17;100095.53;113274;227;40502;-55
2024/04/05 05:12:00;;;;;;;;;;;;;;;9.94;96.45;100097.31;113076;223;170743;-57
2024/04/05 05:14:38;;;;;;;;;7.00;6.00;;;;;10.08;96.27;100105.48;113303;227;40848;-56
2024/04/05 05:17:19;;;;;;;;;9.00;7.00;;;;;10.19;96.40;100106.63;113105;227;170255;-56
2024/04/05 05:19:58;;;;;;;;;9.00;7.00;;;;;10.56;96.53;100104.52;113337;223;40476;-55
2024/04/05 05:22:41;;;;;;;;;6.00;5.00;;;;;11.76;96.49;100109.11;113298;223;40370;-55
2024/04/05 05:25:21;;;;;;;;;6.00;6.00;;;;;13.06;96.21;100110.03;113150;224;170176;-57
2024/04/05 05:27:57;;;;;;;;;8.00;7.00;;;;;14.88;95.24;100111.11;113306;227;40125;-57
2024/04/05 05:30:41;;;;;;;;;8.00;7.00;;;;;16.63;92.39;100109.64;113135;227;169690;-57
2024/04/05 05:33:23;;;;;;;;;6.00;6.00;;;;;18.20;89.93;100112.42;113303;223;40251;-57
2024/04/05 05:36:03;;;;;;;;;6.50;6.00;;;;;19.58;86.83;100112.66;113138;227;169468;-54
2024/04/05 05:38:46;;;;;;;;;6.00;5.00;;;;;20.71;83.75;100108.45;113311;223;40582;-56
2024/04/05 05:41:30;;;;;;;;;5.00;4.00;;;;;21.60;80.00;100111.77;113107;223;169759;-56
2024/04/05 05:44:06;;;;;;;;;6.00;5.00;;;;;22.13;77.71;100113.47;113292;224;40228;-58
2024/04/05 05:46:42;;;;;;;;;6.00;5.00;;;;;21.98;74.97;100115.02;113320;227;41620;-58
2024/04/05 05:49:21;;;;;;;;;6.00;6.00;;;;;22.15;72.49;100121.41;113087;227;169372;-55
2024/04/05 05:51:58;;;;;;;;;5.00;5.00;;;;;22.09;71.50;100131.10;113273;223;41083;-55
2024/04/05 05:54:37;;;;;;;;;7.00;6.00;;;;;20.63;69.84;100140.69;113089;224;169453;-58
2024/04/05 05:57:13;;;;;;;;;8.00;7.00;;;;;19.20;71.27;100142.52;113322;223;40513;-58
2024/04/05 05:59:48;;;;;;;;;6.00;5.00;;;;;18.56;72.50;100152.02;113173;224;169681;-57
2024/04/05 06:02:31;;;;;;;;;8.00;7.00;;;;;18.42;72.31;100149.84;113387;224;40074;-57
2024/04/05 06:05:14;;;;;;;;;5.00;4.00;;;;;18.64;71.94;100156.91;113157;227;169510;-57
2024/04/05 06:07:57;;;;;;;;;3.67;3.67;;;;;18.17;71.79;100163.38;113354;224;41158;-56
2024/04/05 06:10:43;;;;;;;;;5.00;4.00;;;;;17.88;72.01;100166.62;113304;227;41460;-54
2024/04/05 06:13:23;;;;;;;;;6.00;5.00;;;;;17.18;72.47;100173.35;113133;227;169336;-54
2024/04/05 06:15:59;;;;;;;;;4.00;4.00;;;;;16.63;72.41;100181.45;113308;227;40560;-54
2024/04/05 06:18:45;;;;;;;;;7.00;6.00;;;;;16.05;73.34;100186.23;113110;228;169521;-55
2024/04/05 06:21:24;;;;;;;;;6.00;5.00;;;;;15.49;74.76;100190.80;113250;223;41714;-56
2024/04/05 06:24:09;;;;;;;;;6.00;5.00;;;;;15.28;75.35;100195.30;113132;227;169377;-57
2024/04/05 06:26:48;;;;;;;;;4.00;3.67;;;;;14.98;75.56;100196.58;113266;227;41149;-57
2024/04/05 06:29:25;;;;;;;;;6.00;5.00;;;;;14.78;75.75;100201.80;113113;227;170114;-55
2024/04/05 06:32:02;;;;;;;;;5.00;5.00;;;;;14.57;76.10;100204.77;113265;224;40781;-55
2024/04/05 06:34:43;;;;;;;;;7.00;6.00;;;;;14.42;76.78;100210.34;113269;227;41482;-56
2024/04/05 06:37:19;;;;;;;;;6.00;5.00;;;;;14.32;77.15;100216.98;113047;224;169328;-55
2024/04/05 06:39:57;;;;;;;;;6.67;5.00;;;;;14.29;77.54;100211.26;113253;227;41762;-54
2024/04/05 06:42:35;;;;;;;;;6.00;5.00;;;;;14.27;77.20;100211.73;113084;224;169455;-54
2024/04/05 06:45:19;;;;;;;;;6.00;5.00;;;;;14.08;78.30;100213.17;112717;227;768594;-55
2024/04/05 06:48:02;;;;;;;;;9.00;7.00;;;;;14.22;77.96;100218.90;113126;224;169750;-55
2024/04/05 06:50:41;;;;;;;;;6.00;5.33;;;;;14.12;78.09;100221.33;113347;223;40605;-55
2024/04/05 06:53:21;;;;;;;;;6.00;6.00;;;;;14.34;78.61;100226.02;113097;223;170802;-55
2024/04/05 06:56:02;;;;;;;;;6.00;5.00;;;;;14.60;78.97;100227.56;113339;224;41299;-57
2024/04/05 06:58:44;;;;;;;;;8.00;7.00;;;;;15.02;78.91;100223.14;113374;223;40201;-57
2024/04/05 07:01:27;;;;;;;;;7.00;6.00;;;;;15.27;78.55;100230.59;113084;227;169490;-57
2024/04/05 07:04:03;;;;;;;;;7.00;7.00;;;;;16.04;78.72;100233.62;113197;227;41482;-54
2024/04/05 07:06:43;;;;;;;;;8.00;7.00;;;;;16.08;77.59;100234.62;113088;224;170201;-53
2024/04/05 07:09:24;;;;;;;;;8.00;6.50;;;;;16.84;77.12;100235.60;113275;227;39836;-55
2024/04/05 07:12:02;;;;;;;;;6.00;6.00;;;;;17.51;76.58;100234.05;113070;227;169370;-59
2024/04/05 07:14:40;;;;;;;;;6.00;6.00;;;;;17.42;75.34;100238.91;113262;223;40345;-56
2024/04/05 07:17:15;;;;;;;;;6.00;6.00;;;;;17.13;74.76;100246.39;113077;223;169606;-56
2024/04/05 07:19:59;;;;;;;;;6.00;6.00;;;;;17.10;74.78;100254.45;113226;227;41656;-54
2024/04/05 07:22:44;;;;;;;;;6.00;6.00;;;;;17.05;74.23;100259.63;113274;223;40059;-54
2024/04/05 07:25:20;;;;;;;;;7.00;6.00;;;;;16.90;74.51;100259.82;113079;224;170127;-57
2024/04/05 07:27:55;;;;;;;;;7.00;6.00;;;;;17.21;74.45;100260.95;113262;223;40276;-57
2024/04/05 07:30:33;;;;;;;;;6.00;6.00;;;;;17.63;72.82;100258.92;113114;223;169612;-58
2024/04/05 07:33:09;;;;;;;;;8.00;7.00;;;;;17.77;72.80;100265.05;113262;225;41266;-58
2024/04/05 07:35:55;;;;;;;;;6.00;6.00;;;;;17.65;72.88;100269.80;113120;227;169706;-54
2024/04/05 07:38:30;;;;;;;;;7.00;6.50;;;;;17.53;71.73;100276.71;113333;227;39526;-56
2024/04/05 07:41:09;;;;;;;;;6.00;6.00;;;;;17.30;70.54;100283.45;113173;223;169654;-55
2024/04/05 07:43:46;;;;;;;;;6.00;5.00;;;;;17.01;70.30;100289.66;113336;227;40540;-55
2024/04/05 07:46:25;;;;;;;;;6.00;6.00;;;;;16.75;71.64;100294.17;113349;223;39912;-54
2024/04/05 07:49:09;;;;;;;;;5.00;5.00;;;;;16.79;72.11;100298.67;113157;224;169344;-55
2024/04/05 07:51:43;;;;;;;;;6.00;5.50;;;;;17.08;72.11;100303.66;113359;227;39727;-57
2024/04/05 07:54:18;;;;;;;;;7.00;6.00;;;;;17.22;70.88;100308.52;113192;227;170106;-55
2024/04/05 07:56:55;;;;;;;;;6.00;5.00;;;;;17.19;71.30;100309.29;113316;227;41319;-55
2024/04/05 07:59:30;;;;;;;;;6.00;5.00;;;;;17.02;70.91;100311.69;113098;223;169627;-57
2024/04/05 08:02:06;;;;;;;;;5.50;5.50;;;;;16.81;71.47;100312.16;113265;223;39926;-57
2024/04/05 08:04:41;;;;;;;;;7.00;7.00;;;;;16.74;71.81;100316.98;113267;227;41133;-55
2024/04/05 08:07:20;;;;;;;;;7.50;7.00;;;;;16.91;71.66;100316.61;113114;224;169773;-55
2024/04/05 08:10:00;;;;;;;;;10.00;9.00;;;;;17.14;70.62;100316.30;113329;223;41282;-58
2024/04/05 08:12:41;;;;;;;;;6.50;6.00;;;;;17.22;70.28;100319.11;113100;223;169549;-58
2024/04/05 08:15:19;;;;;;;;;8.00;7.00;;;;;17.33;69.55;100319.98;113312;223;39642;-59
2024/04/05 08:17:55;;;;;;;;;7.00;7.00;;;;;17.41;69.55;100323.12;113195;223;169399;-58
2024/04/05 08:20:30;;;;;;;;;7.00;7.00;;;;;17.45;69.70;100325.40;113328;227;40454;-57
2024/04/05 08:23:05;;;;;;;;;7.00;7.00;;;;;17.52;69.10;100327.42;113130;223;169683;-57
2024/04/05 08:25:43;;;;;;;;;6.33;6.00;;;;;17.49;69.80;100324.36;113306;223;40578;-55
2024/04/05 08:28:19;;;;;;;;;8.00;7.00;;;;;17.78;69.90;100324.98;113303;224;39929;-54
2024/04/05 08:31:01;;;;;;;;;6.00;5.75;;;;;17.96;68.79;100329.05;113095;225;169102;-57
2024/04/05 08:33:46;;;;;;;;;6.00;6.00;;;;;18.06;69.50;100326.42;113312;223;39969;-57
2024/04/05 08:36:27;;;;;;;;;6.00;6.00;;;;;18.22;68.52;100335.36;113117;224;169512;-57
2024/04/05 08:39:09;;;;;;;;;5.00;5.00;;;;;18.26;67.15;100337.15;113264;227;40043;-58
2024/04/05 08:41:49;;;;;;;;;6.00;6.00;;;;;18.09;67.77;100337.42;113106;223;170198;-58
2024/04/05 08:44:28;;;;;;;;;6.00;6.00;;;;;18.03;67.07;100339.37;113226;226;39913;-56
2024/04/05 08:47:10;;;;;;;;;6.00;5.00;;;;;17.90;67.68;100344.15;113141;227;169695;-55
2024/04/05 08:49:55;;;;;;;;;7.00;6.00;;;;;17.82;66.58;100350.63;113286;227;40588;-57
2024/04/05 08:52:30;;;;;;;;;7.00;6.00;;;;;17.70;66.59;100353.13;113301;227;42157;-56
2024/04/05 08:55:04;;;;;;;;;5.50;5.00;;;;;17.66;65.93;100352.60;113113;224;169730;-57
2024/04/05 08:57:45;;;;;;;;;5.00;5.00;;;;;17.51;66.08;100353.76;113277;227;40464;-56
2024/04/05 09:00:31;;;;;;;;;6.00;6.00;;;;;17.41;66.61;100362.27;113122;223;169407;-54
2024/04/05 09:03:14;;;;;;;;;6.00;5.00;;;;;17.13;66.98;100365.06;113280;227;41147;-54
2024/04/05 09:05:58;;;;;;;;;6.50;5.50;;;;;16.97;67.09;100365.44;113157;227;169426;-58
2024/04/05 09:08:43;;;;;;;;;6.00;6.00;;;;;16.83;67.62;100368.21;113308;227;40049;-56
2024/04/05 09:11:23;;;;;;;;;6.00;5.00;;;;;16.66;68.33;100367.99;113118;223;169671;-56
2024/04/05 09:14:06;;;;;;;;;8.00;6.33;;;;;16.66;68.65;100366.31;113327;227;40031;-55
2024/04/05 09:16:43;;;;;;;;;6.00;5.00;;;;;16.67;68.38;100370.96;113304;227;40073;-56
2024/04/05 09:19:22;;;;;;;;;5.00;5.00;;;;;16.60;67.81;100373.83;113120;224;169145;-58
2024/04/05 09:22:01;;;;;;;;;6.00;6.00;;;;;16.44;67.78;100375.75;113371;227;42135;-55
2024/04/05 09:24:36;;;;;;;;;7.00;6.00;;;;;16.37;67.97;100376.39;113144;223;169437;-58
2024/04/05 09:27:21;;;;;;;;;5.00;5.00;;;;;16.42;68.43;100377.23;113275;223;40699;-58
2024/04/05 09:30:08;;;;;;;;;7.00;6.50;;;;;16.50;68.50;100381.47;113113;223;169137;-58
2024/04/05 09:32:50;;;;;;;;;6.50;6.00;;;;;16.49;67.82;100379.98;113296;227;40586;-59
2024/04/05 09:35:28;;;;;;;;;7.00;6.00;;;;;16.53;68.37;100383.64;113066;227;169684;-58
2024/04/05 09:38:08;;;;;;;;;7.00;6.00;;;;;16.61;67.67;100385.64;113287;227;40014;-57
2024/04/05 09:40:47;;;;;;;;;6.00;6.00;;;;;16.67;67.92;100386.36;113266;223;40626;-56
2024/04/05 09:43:26;;;;;;;;;8.00;7.00;;;;;16.74;68.46;100387.16;113097;224;169826;-56
2024/04/05 09:46:06;;;;;;;;;12.00;10.00;;;;;16.82;68.76;100386.79;113352;227;42083;-59
2024/04/05 09:48:45;;;;;;;;;7.00;7.00;;;;;16.80;68.65;100384.02;113182;223;169819;-58
2024/04/05 09:51:30;;;;;;;;;6.33;6.33;;;;;16.90;68.49;100384.09;113329;223;41008;-57
2024/04/05 09:54:10;;;;;;;;;7.00;7.00;;;;;17.05;68.42;100390.33;113142;223;169536;-55
2024/04/05 09:56:48;;;;;;;;;9.00;8.00;;;;;17.12;68.29;100383.14;113386;227;41447;-56
2024/04/05 09:59:27;;;;;;;;;7.50;7.00;;;;;17.46;68.24;100384.65;113134;223;169607;-56
2024/04/05 10:02:06;;;;;;;;;8.50;7.00;;;;;17.49;67.51;100387.83;113285;225;41635;-55
2024/04/05 10:04:45;;;;;;;;;7.00;6.00;;;;;17.46;67.41;100389.07;113315;223;40444;-54
2024/04/05 10:07:27;;;;;;;;;7.00;6.00;;;;;17.42;67.29;100387.80;113097;224;169209;-55
2024/04/05 10:10:14;;;;;;;;;7.00;6.00;;;;;17.53;67.28;100389.70;113259;223;41527;-58
2024/04/05 10:12:49;;;;;;;;;8.00;7.00;;;;;17.49;66.06;100392.30;113077;223;169363;-57
2024/04/05 10:15:29;;;;;;;;;9.00;9.00;;;;;17.35;66.18;100392.00;113295;223;40967;-55
2024/04/05 10:18:06;;;;;;;;;10.00;9.00;;;;;17.25;65.96;100395.52;113142;224;169384;-55
2024/04/05 10:20:45;;;;;;;;;7.00;6.00;;;;;17.11;66.09;100398.08;113350;224;39950;-58
2024/04/05 10:23:24;;;;;;;;;8.00;7.00;;;;;17.00;66.75;100395.92;113145;227;169498;-59
2024/04/05 10:26:07;;;;;;;;;8.00;7.67;;;;;17.10;66.65;100393.84;113350;224;41172;-54
2024/04/05 10:28:42;;;;;;;;;7.00;6.50;;;;;17.25;66.25;100393.32;113375;227;40336;-58
2024/04/05 10:31:27;;;;;;;;;8.00;7.00;;;;;17.51;66.86;100389.19;113097;225;169597;-57
2024/04/05 10:34:03;;;;;;;;;7.00;6.00;;;;;17.76;67.10;100381.36;113315;223;39852;-55
2024/04/05 10:36:42;;;;;;;;;7.33;7.00;;;;;17.96;66.96;100380.75;113149;224;169505;-58
2024/04/05 10:39:19;;;;;;;;;7.00;7.00;;;;;18.18;65.95;100380.46;113309;224;40402;-58
2024/04/05 10:41:56;;;;;;;;;9.00;8.00;;;;;18.28;65.96;100379.85;113102;228;169371;-56
2024/04/05 10:44:35;;;;;;;;;8.00;7.00;;;;;18.42;65.44;100380.70;113280;227;39916;-55
2024/04/05 10:47:12;;;;;;;;;8.00;8.00;;;;;18.46;65.83;100380.09;113105;223;169629;-60
2024/04/05 10:50:00;;;;;;;;;8.00;8.00;;;;;18.38;65.70;100380.71;113771;223;39646;-60
2024/04/05 10:52:37;;;;;;;;;7.67;7.33;;;;;18.28;65.96;100378.88;113365;227;40403;-59
2024/04/05 10:55:20;;;;;;;;;7.00;6.00;;;;;18.47;65.74;100388.38;113162;227;169674;-56
2024/04/05 10:58:01;;;;;;;;;8.00;7.00;;;;;18.52;64.41;100392.36;113312;227;40684;-54
2024/04/05 11:00:45;;;;;;;;;9.00;8.00;;;;;18.57;64.43;100393.41;113097;223;169624;-56
2024/04/05 11:03:23;;;;;;;;;5.50;5.00;;;;;18.82;64.31;100388.70;113302;223;40716;-56
2024/04/05 11:06:08;;;;;;;;;6.00;5.00;;;;;19.01;63.84;100391.63;113049;224;169431;-54
2024/04/05 11:08:55;;;;;;;;;6.33;6.00;;;;;18.89;62.68;100392.92;113301;227;39860;-55
2024/04/05 11:11:34;;;;;;;;;5.00;5.00;;;;;18.74;62.13;100395.81;113102;223;169773;-54
2024/04/05 11:14:10;;;;;;;;;5.00;5.00;;;;;18.47;62.55;100400.86;113254;223;40130;-57
2024/04/05 11:17:01;;;;;;;;;8.00;7.00;;;;;18.01;62.65;100407.01;113326;227;41301;-58
2024/04/05 11:19:38;;;;;;;;;11.00;9.00;;;;;17.68;62.66;100405.54;113265;223;39674;-56
2024/04/05 11:22:17;;;;;;;;;6.00;6.00;;;;;17.37;63.35;100406.04;113267;223;40780;-56
2024/04/05 11:24:54;;;;;;;;;8.00;7.00;;;;;17.16;63.56;100404.80;113075;224;169207;-57
2024/04/05 11:27:34;;;;;;;;;7.00;6.25;;;;;16.93;63.95;100403.35;113276;223;40596;-57
2024/04/05 11:30:11;;;;;;;;;8.00;7.50;;;;;16.83;64.37;100405.70;113142;227;169525;-57
2024/04/05 11:32:49;;;;;;;;;8.00;7.00;;;;;16.75;64.06;100404.60;113327;223;40789;-57
2024/04/05 11:35:31;;;;;;;;;7.67;7.00;;;;;16.68;64.26;100402.64;113167;223;169621;-59
2024/04/05 11:38:11;;;;;;;;;6.00;6.00;;;;;16.74;64.34;100401.93;113347;225;41719;-59
2024/04/05 11:40:50;;;;;;;;;7.50;7.00;;;;;16.85;64.78;100408.66;113340;228;40224;-58
2024/04/05 11:43:33;;;;;;;;;6.00;6.00;;;;;17.03;64.43;100408.55;113095;225;169066;-58
2024/04/05 11:46:08;;;;;;;;;8.00;7.00;;;;;17.21;64.58;100412.20;113295;228;40403;-55
2024/04/05 11:48:44;;;;;;;;;7.00;6.00;;;;;17.38;63.98;100408.13;113106;228;169562;-58
2024/04/05 11:51:21;;;;;;;;;5.00;5.00;;;;;17.39;63.55;100406.90;113252;224;40261;-59
2024/04/05 11:53:58;;;;;;;;;8.00;7.00;;;;;17.28;63.60;100408.20;113139;224;169379;-59
2024/04/05 11:56:40;;;;;;;;;7.00;6.00;;;;;17.24;63.02;100408.09;113290;224;41473;-56
2024/04/05 11:59:16;;;;;;;;;7.50;6.50;;;;;17.15;63.05;100404.84;113164;228;169540;-59
2024/04/05 12:02:02;;;;;;;;;7.00;6.00;;;;;17.08;63.47;100404.20;113252;228;40891;-60
2024/04/05 12:04:39;;;;;;;;;7.00;6.50;;;;;17.00;63.72;100402.92;113308;224;41670;-55
2024/04/05 12:07:19;;;;;;;;;9.50;8.50;;;;;16.97;63.86;100404.30;113084;228;169501;-56
2024/04/05 12:09:58;;;;;;;;;9.00;7.00;;;;;17.04;63.79;100404.83;113335;224;40111;-55
2024/04/05 12:12:40;;;;;;;;;7.00;6.00;;;;;17.06;64.11;100404.27;113091;224;169408;-56
2024/04/05 12:15:22;;;;;;;;;7.00;6.00;;;;;17.08;64.32;100404.05;113264;224;40723;-55
2024/04/05 12:18:04;;;;;;;;;9.00;7.00;;;;;17.05;64.21;100409.66;113093;224;170162;-55